TimeEDT,TemperatureF,Dew PointF,Humidity,Sea Level PressureIn,VisibilityMPH,Wind Direction,Wind SpeedMPH,Gust SpeedMPH,PrecipitationIn,Events,Conditions,WindDirDegrees,DateUTC
12:56 AM,70.0,68.0,93,30.14,10.0,Calm,Calm,-,N/A,,Partly Cloudy,0,2013-08-22 04:56:00
1:08 AM,70.0,68.0,93,30.16,4.0,West,4.6,-,N/A,,Mostly Cloudy,280,2013-08-22 05:08:00
1:15 AM,70.0,68.0,93,30.16,1.8,West,4.6,-,N/A,,Mostly Cloudy,270,2013-08-22 05:15:00
1:31 AM,70.0,68.0,93,30.15,0.5,West,4.6,-,N/A,Fog,Fog,270,2013-08-22 05:31:00
1:45 AM,70.0,68.0,93,30.15,0.8,Calm,Calm,-,N/A,,Mist,0,2013-08-22 05:45:00
1:56 AM,70.0,68.0,93,30.14,1.0,Calm,Calm,-,N/A,,Mist,0,2013-08-22 05:56:00
2:07 AM,70.0,68.0,93,30.15,0.8,Calm,Calm,-,N/A,,Mist,0,2013-08-22 06:07:00
2:36 AM,70.0,68.0,93,30.15,0.5,Calm,Calm,-,N/A,Fog,Fog,0,2013-08-22 06:36:00
2:56 AM,71.1,69.1,93,30.14,0.5,Calm,Calm,-,N/A,Fog,Fog,0,2013-08-22 06:56:00
3:22 AM,71.1,69.1,93,30.15,0.8,Calm,Calm,-,N/A,,Mist,0,2013-08-22 07:22:00
3:44 AM,71.1,69.1,93,30.15,1.0,Calm,Calm,-,N/A,,Mist,0,2013-08-22 07:44:00
3:56 AM,71.1,69.1,93,30.13,2.0,Variable,3.5,-,N/A,,Overcast,0,2013-08-22 07:56:00
4:13 AM,71.1,69.1,93,30.14,3.0,SW,3.5,-,N/A,,Overcast,230,2013-08-22 08:13:00
4:56 AM,71.1,69.1,93,30.12,7.0,Calm,Calm,-,N/A,,Scattered Clouds,0,2013-08-22 08:56:00
5:56 AM,71.1,68.0,90,30.12,7.0,Calm,Calm,-,N/A,,Clear,0,2013-08-22 09:56:00
6:49 AM,70.0,66.9,90,30.14,2.5,Calm,Calm,-,N/A,,Clear,0,2013-08-22 10:49:00
6:56 AM,69.1,68.0,96,30.13,5.0,Calm,Calm,-,N/A,,Clear,0,2013-08-22 10:56:00
7:56 AM,71.1,69.1,93,30.13,8.0,West,3.5,-,N/A,,Clear,260,2013-08-22 11:56:00
8:09 AM,72.0,69.1,91,30.15,10.0,West,4.6,-,N/A,,Scattered Clouds,270,2013-08-22 12:09:00
8:18 AM,72.0,69.1,91,30.15,9.0,Variable,5.8,-,N/A,,Mostly Cloudy,0,2013-08-22 12:18:00
8:28 AM,72.0,70.0,93,30.15,8.0,Variable,5.8,-,N/A,,Overcast,0,2013-08-22 12:28:00
8:56 AM,72.0,70.0,93,30.15,8.0,Variable,4.6,-,N/A,,Overcast,0,2013-08-22 12:56:00
9:31 AM,73.9,70.0,87,30.16,9.0,Variable,3.5,-,N/A,,Overcast,0,2013-08-22 13:31:00
9:56 AM,75.0,71.1,87,30.14,10.0,West,5.8,-,N/A,,Overcast,280,2013-08-22 13:56:00
10:56 AM,78.1,71.1,79,30.14,10.0,West,5.8,-,N/A,,Mostly Cloudy,280,2013-08-22 14:56:00
11:28 AM,80.1,71.1,74,30.15,10.0,West,5.8,-,N/A,,Scattered Clouds,270,2013-08-22 15:28:00
11:56 AM,81.0,71.1,72,30.13,10.0,Variable,4.6,-,N/A,,Clear,0,2013-08-22 15:56:00
12:56 PM,84.0,70.0,63,30.11,10.0,West,4.6,-,N/A,,Clear,260,2013-08-22 16:56:00
1:56 PM,84.9,68.0,57,30.08,10.0,WNW,4.6,-,N/A,,Clear,290,2013-08-22 17:56:00
2:56 PM,87.1,68.0,53,30.06,10.0,North,-9999.0,-,N/A,,Clear,0,2013-08-22 18:56:00
3:56 PM,86.0,68.0,55,30.03,10.0,Variable,3.5,-,N/A,,Clear,0,2013-08-22 19:56:00
4:56 PM,86.0,68.0,55,30.01,10.0,Variable,3.5,-,N/A,,Clear,0,2013-08-22 20:56:00
5:56 PM,84.9,69.1,59,30.00,10.0,SW,3.5,-,N/A,,Scattered Clouds,220,2013-08-22 21:56:00
6:56 PM,81.0,71.1,72,30.01,10.0,Calm,Calm,-,N/A,,Clear,0,2013-08-22 22:56:00
7:56 PM,77.0,72.0,84,30.02,10.0,Calm,Calm,-,N/A,,Clear,0,2013-08-22 23:56:00
8:56 PM,75.0,72.0,90,30.03,10.0,Calm,Calm,-,N/A,,Clear,0,2013-08-23 00:56:00
9:56 PM,75.9,71.1,85,30.05,10.0,Calm,Calm,-,N/A,,Clear,0,2013-08-23 01:56:00
10:56 PM,73.9,70.0,87,30.03,10.0,Calm,Calm,-,N/A,,Clear,0,2013-08-23 02:56:00
11:56 PM,73.9,70.0,87,30.04,10.0,Variable,4.6,-,N/A,,Clear,0,2013-08-23 03:56:00